Dublin, Ireland
Current Conditions -  °F | °C
As of 1:30 PM on Friday 24 Oct 2014 (Local Time) from EIDW Reporting Station
Rain Showers Rain Showers  
Wind Chill: 54°   Ceiling: 5000
Heat Index: 54°   Visibility: 6mi
Dew Point: 43°   Wind: 22mph
Humidity: 67%   Direction: 250°WSW
Pressure: 29.83"   Gusts: NA
Location:  53.33°N, 6.25°W
Report Text: EIDW 241330Z 25019KT 9999 -SHRA FEW019 SCT035 BKN050 12/06 Q1010 NOSIG
Loading
Personal Weather Stations






























Interactive Weather Map
Tropical Storm Tracking
New forecast layout! Learn more

10-Day Weather Forecast

Advertisements
Track Severe Weather on mobile